Sim-Planet VA

Sim-Planet Nouvel Horizon. By: Anthony Pay
Since 2020.




 METAR ET TAF INFORMATION
METAR FOR LBBG
ADDS - METARS form results

(2048 UTC 28 January 2022)
Data provider http://aviationweather.gov/metar/data/
 
METAR text: LBBG 282030Z 28012KT 250V310 CAVOK 06/M03 Q1019 NOSIG
Conditions at: LBBG (BURGAS , BG) observed 2030 UTC 28 January 2022
Temperature: 6.0°C (43°F)
Dewpoint: -3.0°C (27°F) [RH = 52%]
Pressure (altimeter): 30.09 inches Hg (1019.0 mb)
Winds: from the W (280 degrees) at 14 MPH (12 knots; 6.2 m/s)
Visibility: 6 or more miles (10+ km)
Ceiling: ceiling and visibility are OK
Clouds: unknown
Weather: no significant weather observed at this time

METAR text: LBBG 282000Z 26011KT CAVOK 05/M03 Q1019 NOSIG
Conditions at: LBBG (BURGAS , BG) observed 2000 UTC 28 January 2022
Temperature: 5.0°C (41°F)
Dewpoint: -3.0°C (27°F) [RH = 56%]
Pressure (altimeter): 30.09 inches Hg (1019.0 mb)
Winds: from the W (260 degrees) at 13 MPH (11 knots; 5.7 m/s)
Visibility: 6 or more miles (10+ km)
Ceiling: ceiling and visibility are OK
Clouds: unknown
Weather: no significant weather observed at this time

Forecast for: LBBG (BURGAS , BG)
Text: TAF LBBG 281700Z 2818/2918 26012KT 9999 SCT045
Forecast period: 1800 UTC 28 January 2022 to 1100 UTC 29 January 2022
Forecast type: FROM: standard forecast or significant change
Winds: from the W (260 degrees) at 14 MPH (12 knots; 6.2 m/s)
Visibility: 6 or more miles (10+ km)
Ceiling: at least 12,000 feet AGL
Clouds: scattered clouds at 4500 feet AGL
Weather: no significant weather forecast for this period
Text: BECMG 2911/2913 10008KT BKN035
Forecast period: 1100 to 1800 UTC 29 January 2022
Forecast type: BECOMING: Conditions expected to become as follows by 1300 UTC 29 January 2022
Winds: from the E (100 degrees) at 9 MPH (8 knots; 4.1 m/s)
Visibility: 6 or more miles (10+ km)
Ceiling: 3500 feet AGL
Clouds: broken clouds at 3500 feet AGL
Weather: no significant weather forecast for this period

 AÉROPORT DE AÉROPORT

 INFORMATIONS DE PISTE
Piste 04 Longueur de la piste 10499 ft Largeur de la piste 148 ft
Élévation de la piste 89 ft Seuil de la piste déplacés 0 ft Runway heading 44
Piste 22 Longueur de la piste 10499 ft Largeur de la piste 148 ft
Élévation de la piste 121 ft Seuil de la piste déplacés 0 ft Runway heading 224

 AÉROPORT FRÉQUENCES
Type APP Nom APP Féquence 125.1 MHZ
Type ATIS Nom ATIS Féquence 120.95 MHZ
Type TWR Nom TWR Féquence 118 MHZ

 SIDA DE NAVIGATION
Type VOR-DME Nom Burgas Féquence 112000 KHZ
Type NDB Nom Burgas Féquence 356 KHZ

Nos Partenaires